Time;durP1;ratioP1;P1;durP2;ratioP2;P2;SDS_P1;SDS_P2;PMS_P1;PMS_P2;Temp;Humidity;BMP_temperature;BMP_pressure;BME280_temperature;BME280_humidity;BME280_pressure;Samples;Min_cycle;Max_cycle;Signal;HPM_P1;HPM_P2
2022/06/25 00:01:27;;;;;;;6.75;3.92;;;;;;;16.18;100.00;99455.25;1757110;79;21067;-63
2022/06/25 00:03:53;;;;;;;7.67;3.83;;;;;;;16.08;100.00;99456.89;1782907;79;21544;-64
2022/06/25 00:06:21;;;;;;;5.78;3.62;;;;;;;16.07;100.00;99459.94;1793253;79;21578;-63
2022/06/25 00:08:48;;;;;;;6.83;4.33;;;;;;;16.10;100.00;99458.75;1777570;79;21041;-63
2022/06/25 00:14:06;;;;;;;8.30;4.12;;;;;;;16.10;100.00;99456.56;1777478;79;21024;-63
2022/06/25 00:16:34;;;;;;;6.00;4.08;;;;;;;16.04;100.00;99455.89;1777406;79;21023;-63
2022/06/25 00:19:00;;;;;;;5.28;3.80;;;;;;;16.00;100.00;99458.20;1761822;79;21541;-63
2022/06/25 00:21:27;;;;;;;5.55;3.90;;;;;;;15.94;100.00;99461.06;1760323;79;21482;-64
2022/06/25 00:23:53;;;;;;;;;;;;;;;15.93;100.00;99470.44;1777110;79;21023;-66
2022/06/25 00:26:20;;;;;;;6.58;3.92;;;;;;;16.01;100.00;99470.81;1758028;79;20108;-63
2022/06/25 00:28:46;;;;;;;6.45;4.03;;;;;;;16.06;100.00;99463.24;1773459;79;21027;-63
2022/06/25 00:31:12;;;;;;;;;;;;;;;16.14;100.00;99465.80;1756750;80;21003;-65
2022/06/25 00:33:39;;;;;;;7.95;3.98;;;;;;;16.10;100.00;99466.98;1777149;79;20124;-63
2022/06/25 00:36:05;;;;;;;7.65;3.85;;;;;;;15.96;100.00;99470.37;1771433;79;21007;-63
2022/06/25 00:38:32;;;;;;;5.92;3.85;;;;;;;15.94;100.00;99464.39;1752752;81;21047;-63
2022/06/25 00:40:58;;;;;;;5.55;3.62;;;;;;;15.96;100.00;99469.00;1766594;81;21134;-64
2022/06/25 00:43:25;;;;;;;5.85;4.00;;;;;;;15.93;100.00;99471.00;1772258;79;21316;-63
2022/06/25 00:45:51;;;;;;;;;;;;;;;15.87;100.00;99470.89;1778459;79;21055;-63
2022/06/25 00:48:17;;;;;;;7.78;4.05;;;;;;;15.84;100.00;99474.23;1782860;79;20139;-63
2022/06/25 00:50:44;;;;;;;6.72;4.35;;;;;;;15.76;100.00;99470.33;1777693;79;21028;-63
2022/06/25 00:53:10;;;;;;;5.10;3.87;;;;;;;15.68;100.00;99477.93;1784025;79;21036;-63
2022/06/25 00:55:37;;;;;;;;;;;;;;;15.57;100.00;99479.84;1768359;79;21023;-63
2022/06/25 00:58:04;;;;;;;11.28;4.10;;;;;;;15.45;100.00;99477.61;1773362;79;20175;-63
2022/06/25 01:00:31;;;;;;;5.75;3.87;;;;;;;15.36;100.00;99473.44;1773479;79;21110;-63
2022/06/25 01:02:58;;;;;;;7.70;4.08;;;;;;;15.31;100.00;99468.61;1789505;79;21075;-63
2022/06/25 01:05:24;;;;;;;;;;;;;;;15.28;100.00;99472.80;1776093;79;21462;-63
2022/06/25 01:07:52;;;;;;;5.35;3.83;;;;;;;15.26;100.00;99477.79;1762191;80;20101;-64
2022/06/25 01:10:18;;;;;;;7.37;4.17;;;;;;;15.24;100.00;99477.27;1775691;79;21042;-63
2022/06/25 01:12:45;;;;;;;;;;;;;;;15.26;100.00;99477.79;1777111;79;21054;-63
2022/06/25 01:15:19;;;;;;;7.15;4.20;;;;;;;15.21;100.00;99476.52;1784718;79;20149;-63
2022/06/25 01:17:49;;;;;;;6.62;4.12;;;;;;;15.07;100.00;99479.03;1786114;79;21518;-63
2022/06/25 01:20:18;;;;;;;5.70;3.95;;;;;;;15.00;100.00;99487.68;1774292;79;20950;-63
2022/06/25 01:22:45;;;;;;;5.10;3.77;;;;;;;14.95;100.00;99487.22;1757275;79;20978;-64
2022/06/25 01:25:12;;;;;;;5.53;4.15;;;;;;;14.89;100.00;99487.08;1786832;79;21309;-64
2022/06/25 01:27:39;;;;;;;6.10;4.42;;;;;;;14.85;100.00;99487.44;1770604;79;20935;-63
2022/06/25 01:30:07;;;;;;;;;;;;;;;14.78;100.00;99478.81;1765692;79;21601;-64
2022/06/25 01:32:34;;;;;;;9.03;4.30;;;;;;;14.77;100.00;99485.98;1781417;79;20140;-62
2022/06/25 01:35:01;;;;;;;8.18;4.10;;;;;;;14.66;100.00;99495.52;1714307;82;21490;-63
2022/06/25 01:37:28;;;;;;;6.58;4.10;;;;;;;14.67;100.00;99499.31;1786048;79;21026;-64
2022/06/25 01:39:55;;;;;;;6.75;4.15;;;;;;;14.71;100.00;99497.59;1755919;80;21042;-64
2022/06/25 01:45:11;;;;;;;;;;;;;;;14.70;100.00;99500.06;1792717;79;21090;-63
2022/06/25 01:47:38;;;;;;;9.95;4.15;;;;;;;14.64;100.00;99502.66;1799310;79;20106;-63
2022/06/25 01:50:07;;;;;;;5.58;4.00;;;;;;;14.54;100.00;99504.23;1779469;79;21011;-63
2022/06/25 01:52:34;;;;;;;5.65;4.28;;;;;;;14.54;100.00;99506.97;1741659;80;21542;-63
2022/06/25 01:55:01;;;;;;;5.80;4.22;;;;;;;14.57;100.00;99509.10;1754344;79;21027;-63
2022/06/25 01:57:28;;;;;;;5.95;4.10;;;;;;;14.57;100.00;99510.47;1755553;79;21083;-63
2022/06/25 01:59:56;;;;;;;7.03;3.92;;;;;;;14.59;100.00;99511.55;1762544;79;21895;-64
2022/06/25 02:02:22;;;;;;;5.17;3.87;;;;;;;14.61;100.00;99508.75;1747513;80;21023;-63
2022/06/25 02:04:49;;;;;;;7.05;4.47;;;;;;;14.65;100.00;99515.25;1783548;79;21051;-64
2022/06/25 02:07:15;;;;;;;;;;;;;;;14.68;100.00;99508.34;1776447;80;21079;-63
2022/06/25 02:09:42;;;;;;;6.22;4.33;;;;;;;14.67;100.00;99510.27;1771405;79;20105;-63
2022/06/25 02:12:09;;;;;;;6.40;4.00;;;;;;;14.64;100.00;99510.88;1779835;78;21530;-63
2022/06/25 02:14:36;;;;;;;7.42;3.72;;;;;;;14.67;100.00;99512.19;1697268;82;21128;-63
2022/06/25 02:17:03;;;;;;;7.08;4.40;;;;;;;14.68;100.00;99506.98;1765984;79;21521;-63
2022/06/25 02:19:30;;;;;;;5.50;3.60;;;;;;;14.69;100.00;99504.50;1788352;78;21066;-64
2022/06/25 02:21:56;;;;;;;6.85;3.77;;;;;;;14.68;100.00;99509.16;1771041;79;21066;-64
2022/06/25 02:24:23;;;;;;;;;;;;;;;14.69;100.00;99511.34;1774992;79;21407;-64
2022/06/25 02:26:49;;;;;;;6.87;4.00;;;;;;;14.70;100.00;99517.88;1758306;80;20107;-64
2022/06/25 02:29:16;;;;;;;6.10;4.28;;;;;;;14.67;100.00;99517.67;1767238;79;21576;-63
2022/06/25 02:31:42;;;;;;;6.87;4.03;;;;;;;14.67;100.00;99519.86;1765515;79;21023;-64
2022/06/25 02:34:09;;;;;;;6.12;3.75;;;;;;;14.68;100.00;99511.08;1777366;79;21004;-63
2022/06/25 02:36:36;;;;;;;5.45;3.60;;;;;;;14.71;100.00;99515.95;1713788;81;21019;-63
2022/06/25 02:39:04;;;;;;;6.22;4.00;;;;;;;14.72;100.00;99518.95;1706660;83;21120;-62
2022/06/25 02:41:31;;;;;;;7.40;4.25;;;;;;;14.75;100.00;99512.31;1758321;79;21090;-65
2022/06/25 02:43:57;;;;;;;6.87;3.72;;;;;;;14.81;100.00;99513.82;1755995;80;21074;-63
2022/06/25 02:46:27;;;;;;;5.67;3.75;;;;;;;14.88;100.00;99513.41;1742664;81;21062;-62
2022/06/25 02:48:56;;;;;;;6.85;4.00;;;;;;;14.91;100.00;99510.88;1771775;79;21027;-63
2022/06/25 02:51:22;;;;;;;6.03;4.20;;;;;;;14.97;100.00;99512.15;1768025;79;21761;-63
2022/06/25 02:53:49;;;;;;;7.22;3.80;;;;;;;15.03;100.00;99517.22;1770137;80;21055;-64
2022/06/25 02:59:03;;;;;;;5.55;3.85;;;;;;;15.12;100.00;99521.44;1744698;81;21103;-63
2022/06/25 03:01:31;;;;;;;8.13;4.00;;;;;;;15.17;100.00;99517.19;1702025;83;21098;-63
2022/06/25 03:03:58;;;;;;;8.05;3.50;;;;;;;15.24;100.00;99515.66;1761737;79;21056;-63
2022/06/25 03:06:25;;;;;;;5.92;4.00;;;;;;;15.33;100.00;99515.76;1766015;80;21073;-64
2022/06/25 03:08:53;;;;;;;5.92;4.05;;;;;;;15.43;100.00;99515.53;1756038;79;21577;-63
2022/06/25 03:11:19;;;;;;;7.65;3.70;;;;;;;15.49;100.00;99513.50;1690521;83;21067;-63
2022/06/25 03:13:47;;;;;;;6.03;3.87;;;;;;;15.63;100.00;99515.08;1752999;79;21134;-63
2022/06/25 03:16:14;;;;;;;6.17;4.05;;;;;;;15.86;100.00;99525.53;1685292;83;21531;-63
2022/06/25 03:18:41;;;;;;;6.42;3.77;;;;;;;16.11;100.00;99519.97;1764910;80;21030;-63
2022/06/25 03:21:10;;;;;;;7.90;3.70;;;;;;;16.37;100.00;99518.98;1703566;83;21095;-64
2022/06/25 03:23:37;;;;;;;5.05;3.62;;;;;;;16.61;100.00;99525.55;1771593;79;21590;-64
2022/06/25 03:26:03;;;;;;;7.47;3.67;;;;;;;16.81;100.00;99515.91;1691764;83;20988;-65
2022/06/25 03:28:30;;;;;;;7.72;3.50;;;;;;;17.03;100.00;99513.08;1756269;80;21015;-64
2022/06/25 03:30:57;;;;;;;8.45;3.83;;;;;;;17.25;100.00;99509.41;1717612;79;20988;-64
2022/06/25 03:33:24;;;;;;;6.53;3.27;;;;;;;17.52;100.00;99510.48;1731736;81;21055;-63
2022/06/25 03:36:10;;;;;;;5.30;3.90;;;;;;;17.78;100.00;99505.02;1761878;80;20979;-63
2022/06/25 03:38:39;;;;;;;4.62;2.87;;;;;;;18.11;100.00;99505.29;1691433;83;21051;-64
2022/06/25 03:43:51;;;;;;;4.42;3.40;;;;;;;18.57;100.00;99499.03;1772646;80;21039;-64
2022/06/25 03:46:19;;;;;;;12.07;3.50;;;;;;;18.80;100.00;99493.52;1776314;79;21530;-64
2022/06/25 03:48:47;;;;;;;6.75;3.60;;;;;;;19.03;100.00;99483.00;1659279;83;21118;-63
2022/06/25 03:51:25;;;;;;;6.50;3.60;;;;;;;19.26;100.00;99487.08;1743888;80;21672;-64
2022/06/25 03:53:52;;;;;;;6.10;3.05;;;;;;;19.43;100.00;99482.03;1776624;80;21412;-63
2022/06/25 03:56:19;;;;;;;6.42;3.80;;;;;;;19.54;100.00;99479.92;1777411;80;22988;-64
2022/06/25 03:58:46;;;;;;;5.60;3.27;;;;;;;19.75;100.00;99483.48;1752299;80;21071;-64
2022/06/25 04:01:12;;;;;;;4.45;3.12;;;;;;;19.96;100.00;99493.12;1755860;80;21094;-64
2022/06/25 04:03:41;;;;;;;4.03;2.35;;;;;;;20.21;100.00;99494.81;1748977;80;21079;-64
2022/06/25 04:06:09;;;;;;;4.05;2.62;;;;;;;20.47;100.00;99497.91;1747035;80;20952;-64
2022/06/25 04:08:44;;;;;;;5.58;2.62;;;;;;;20.67;100.00;99497.82;1736957;80;21066;-64
2022/06/25 04:11:12;;;;;;;6.53;2.47;;;;;;;20.79;100.00;99497.03;1722456;80;21475;-64
2022/06/25 04:13:44;;;;;;;5.70;2.50;;;;;;;20.88;100.00;99497.71;1750222;80;21032;-63
2022/06/25 04:16:12;;;;;;;4.17;2.47;;;;;;;20.97;100.00;99498.99;1754609;80;21534;-65
2022/06/25 04:18:40;;;;;;;4.33;2.35;;;;;;;21.08;100.00;99500.14;1751114;80;21017;-64
2022/06/25 04:21:07;;;;;;;3.58;2.37;;;;;;;21.28;100.00;99501.42;1717107;80;20975;-65
2022/06/25 04:23:33;;;;;;;3.58;1.92;;;;;;;21.37;100.00;99498.50;1744223;81;21015;-64
2022/06/25 04:26:01;;;;;;;4.12;2.25;;;;;;;21.40;100.00;99498.41;1751827;80;20931;-64
2022/06/25 04:31:23;;;;;;;3.10;2.02;;;;;;;21.69;100.00;99505.82;1746514;80;20999;-64
2022/06/25 04:33:51;;;;;;;3.87;2.25;;;;;;;21.92;100.00;99509.48;1759466;80;21038;-64
2022/06/25 04:36:18;;;;;;;2.87;2.05;;;;;;;22.09;100.00;99499.47;1750825;80;21008;-64
2022/06/25 04:38:46;;;;;;;4.75;2.45;;;;;;;22.24;100.00;99506.45;1777594;80;21369;-65
2022/06/25 04:41:13;;;;;;;3.83;2.30;;;;;;;22.38;100.00;99504.63;1753412;80;21018;-65
2022/06/25 04:43:40;;;;;;;3.85;2.22;;;;;;;22.40;100.00;99511.19;1771970;80;21042;-65
2022/06/25 04:46:08;;;;;;;6.15;2.67;;;;;;;22.55;100.00;99511.80;1759007;80;20985;-65
2022/06/25 04:48:37;;;;;;;4.20;2.75;;;;;;;22.65;100.00;99507.11;1753902;80;21071;-65
2022/06/25 04:51:12;;;;;;;5.67;2.58;;;;;;;22.68;100.00;99516.94;1779961;79;21003;-64
2022/06/25 04:53:55;;;;;;;4.15;2.98;;;;;;;22.72;100.00;99518.42;1769252;81;21078;-65
2022/06/25 04:56:08;;;;;;;5.85;2.85;;;;;;;22.60;100.00;99522.65;1759374;79;21483;-65
2022/06/25 04:58:35;;;;;;;4.65;2.90;;;;;;;22.60;100.00;99522.65;1760824;79;21046;-65
2022/06/25 05:01:19;;;;;;;5.17;3.05;;;;;;;22.51;100.00;99524.77;1769436;79;21021;-65
2022/06/25 05:03:46;;;;;;;4.45;3.50;;;;;;;22.58;100.00;99527.16;1755062;79;21099;-65
2022/06/25 05:06:13;;;;;;;6.42;3.30;;;;;;;22.72;100.00;99533.68;1771589;79;21393;-65
2022/06/25 05:08:40;;;;;;;5.83;3.10;;;;;;;22.89;100.00;99526.38;1759037;81;21035;-65
2022/06/25 05:11:07;;;;;;;6.20;3.02;;;;;;;23.07;100.00;99531.80;1769970;79;21035;-65
2022/06/25 05:13:33;;;;;;;9.85;3.12;;;;;;;23.37;100.00;99536.87;1775171;79;21016;-65
2022/06/25 05:16:00;;;;;;;4.80;2.87;;;;;;;23.53;100.00;99529.33;1746963;80;21015;-65
2022/06/25 05:18:26;;;;;;;7.53;2.98;;;;;;;23.64;100.00;99538.13;1748315;81;21428;-65
2022/06/25 05:20:53;;;;;;;4.55;3.10;;;;;;;23.89;100.00;99539.24;1772477;79;21434;-63
2022/06/25 05:23:21;;;;;;;5.08;2.62;;;;;;;23.97;100.00;99536.84;1746907;81;21051;-63
2022/06/25 05:25:49;;;;;;;4.10;2.50;;;;;;;24.06;100.00;99539.61;1748141;79;21334;-64
2022/06/25 05:28:17;;;;;;;4.12;2.70;;;;;;;24.50;100.00;99541.52;1749045;79;21082;-63
2022/06/25 05:30:43;;;;;;;4.55;2.90;;;;;;;24.80;100.00;99536.69;1729227;81;20980;-64
2022/06/25 05:33:10;;;;;;;5.58;2.90;;;;;;;25.05;100.00;99541.52;1769912;79;21019;-65
2022/06/25 05:35:37;;;;;;;5.37;2.90;;;;;;;25.31;100.00;99535.75;1704375;82;21519;-63
2022/06/25 05:38:03;;;;;;;3.55;2.70;;;;;;;25.55;100.00;99545.91;1750424;81;21551;-64
2022/06/25 05:40:31;;;;;;;5.97;2.70;;;;;;;25.45;100.00;99531.78;1748782;81;21006;-64
2022/06/25 05:42:57;;;;;;;4.75;2.62;;;;;;;25.57;100.00;99535.79;1760092;79;21024;-63
2022/06/25 05:45:23;;;;;;;6.28;2.90;;;;;;;25.91;100.00;99543.02;1758466;79;21027;-64
2022/06/25 05:47:50;;;;;;;4.45;2.85;;;;;;;26.17;100.00;99535.19;1755035;79;21039;-65
2022/06/25 05:50:17;;;;;;;4.40;2.30;;;;;;;26.28;97.04;99539.52;1742736;79;20972;-65
2022/06/25 05:52:44;;;;;;;3.40;2.52;;;;;;;26.09;92.72;99539.06;1778374;79;20976;-64
2022/06/25 05:55:11;;;;;;;2.87;2.35;;;;;;;26.06;96.72;99550.39;1753211;79;21501;-64
2022/06/25 05:57:39;;;;;;;4.37;2.83;;;;;;;26.13;97.01;99550.48;1758660;81;21420;-65
2022/06/25 06:00:08;;;;;;;5.75;2.27;;;;;;;26.18;93.88;99557.14;1706649;82;20976;-66
2022/06/25 06:02:40;;;;;;;4.15;2.67;;;;;;;26.20;91.61;99545.02;1699356;82;21112;-65
2022/06/25 06:05:07;;;;;;;3.50;2.12;;;;;;;26.34;93.47;99547.17;1770300;80;20960;-65
2022/06/25 06:07:34;;;;;;;5.33;2.60;;;;;;;26.41;87.59;99550.63;1746378;80;20983;-64
2022/06/25 06:10:01;;;;;;;4.15;2.22;;;;;;;26.50;84.73;99552.53;1766794;79;21020;-64
2022/06/25 06:12:28;;;;;;;3.50;1.98;;;;;;;26.43;83.20;99543.47;1764042;79;21322;-64
2022/06/25 06:14:54;;;;;;;3.00;2.02;;;;;;;26.34;83.75;99547.17;1760695;79;20952;-63
2022/06/25 06:17:21;;;;;;;3.52;1.90;;;;;;;26.44;84.95;99547.06;1764291;81;21522;-63
2022/06/25 06:19:47;;;;;;;2.30;1.80;;;;;;;26.50;83.42;99552.53;1726474;81;21461;-64
2022/06/25 06:22:14;;;;;;;3.62;2.30;;;;;;;26.69;80.35;99550.92;1759975;79;20995;-64
2022/06/25 06:24:40;;;;;;;3.22;1.98;;;;;;;26.69;79.83;99541.96;1755004;79;21067;-64
2022/06/25 06:27:06;;;;;;;3.58;2.00;;;;;;;26.86;84.30;99539.15;1753004;79;21022;-66
2022/06/25 06:29:33;;;;;;;3.08;2.05;;;;;;;27.03;76.72;99541.91;1697071;82;21095;-65
2022/06/25 06:31:59;;;;;;;3.55;2.02;;;;;;;27.13;76.14;99540.60;1748131;80;20982;-65
2022/06/25 06:34:26;;;;;;;3.87;1.80;;;;;;;27.37;74.49;99547.56;1763736;79;21054;-64
2022/06/25 06:36:52;;;;;;;5.45;2.00;;;;;;;27.63;69.26;99543.16;1761907;79;21455;-64
2022/06/25 06:39:19;;;;;;;4.03;1.92;;;;;;;27.70;69.02;99546.61;1730070;81;21006;-64
2022/06/25 06:41:46;;;;;;;2.20;1.70;;;;;;;27.65;63.19;99548.37;1758068;79;20976;-65
2022/06/25 06:44:13;;;;;;;3.42;1.98;;;;;;;27.55;63.65;99552.71;1762350;79;21087;-62
2022/06/25 06:46:40;;;;;;;3.40;1.70;;;;;;;27.41;61.06;99544.20;1764161;79;20951;-63
2022/06/25 06:49:07;;;;;;;4.05;1.70;;;;;;;27.36;63.28;99549.33;1774393;78;21045;-64
2022/06/25 06:51:33;;;;;;;4.37;1.90;;;;;;;27.37;65.34;99541.16;1778558;78;20963;-64
2022/06/25 06:54:00;;;;;;;2.85;1.65;;;;;;;27.55;61.90;99538.73;1779654;78;21097;-65
2022/06/25 06:56:26;;;;;;;2.75;1.60;;;;;;;27.68;61.00;99555.97;1718985;82;20996;-64
2022/06/25 06:58:53;;;;;;;2.50;1.62;;;;;;;27.60;58.74;99540.33;1709115;82;21011;-65
2022/06/25 07:01:20;;;;;;;2.33;1.40;;;;;;;27.57;56.47;99551.71;1717488;83;21045;-65
2022/06/25 07:03:46;;;;;;;3.37;1.60;;;;;;;27.44;54.02;99549.00;1722893;82;21507;-64
2022/06/25 07:06:13;;;;;;;4.42;2.00;;;;;;;27.47;57.88;99546.05;1727259;80;20973;-65
2022/06/25 07:08:39;;;;;;;2.60;1.55;;;;;;;27.67;55.72;99551.56;1717607;81;21055;-65
2022/06/25 07:11:28;;;;;;;4.05;1.50;;;;;;;27.75;56.26;99560.80;1706634;83;21025;-65
2022/06/25 07:13:37;;;;;;;2.40;1.52;;;;;;;28.00;53.13;99549.95;1736021;80;21616;-64
2022/06/25 07:16:04;;;;;;;1.95;1.35;;;;;;;28.22;52.95;99565.47;1734157;82;21045;-65
2022/06/25 07:18:32;;;;;;;2.67;1.42;;;;;;;28.19;50.80;99557.27;1744150;81;21662;-65
2022/06/25 07:20:59;;;;;;;3.12;1.50;;;;;;;28.17;52.95;99555.44;1728178;82;21032;-65
2022/06/25 07:23:25;;;;;;;3.58;1.45;;;;;;;27.96;51.01;99555.31;1742241;80;21618;-64
2022/06/25 07:25:51;;;;;;;2.92;1.50;;;;;;;27.61;52.03;99551.73;1740214;80;21540;-65
2022/06/25 07:28:18;;;;;;;3.30;1.45;;;;;;;27.28;51.37;99548.47;1738566;80;21028;-64
2022/06/25 07:30:45;;;;;;;1.90;1.32;;;;;;;27.34;56.26;99553.13;1752382;80;21058;-67
2022/06/25 07:33:11;;;;;;;2.65;1.72;;;;;;;27.74;51.71;99550.83;1751785;80;21068;-64
2022/06/25 07:35:38;;;;;;;6.08;1.87;;;;;;;28.10;49.57;99554.82;1732139;80;21511;-64
2022/06/25 07:38:05;;;;;;;3.58;1.30;;;;;;;28.26;49.36;99559.28;1732563;82;21650;-66
2022/06/25 07:40:31;;;;;;;4.33;1.45;;;;;;;28.30;49.13;99554.51;1752465;80;21500;-65
2022/06/25 07:42:58;;;;;;;2.92;1.60;;;;;;;28.31;49.38;99562.49;1736176;82;21089;-65
2022/06/25 07:47:38;;;;;;;;;;;;;;;28.36;50.54;99550.13;1814685;78;22683;-64
2022/06/25 07:52:52;;;;;;;2.72;1.40;;;;;;;28.15;50.32;99560.64;1739192;81;21653;-64
2022/06/25 07:55:18;;;;;;;2.00;1.32;;;;;;;27.81;49.80;99564.85;1758290;80;21548;-66
2022/06/25 07:57:45;;;;;;;2.83;1.47;;;;;;;27.75;51.55;99558.81;1747252;81;21007;-63
2022/06/25 08:00:12;;;;;;;3.10;1.42;;;;;;;27.78;50.97;99563.61;1756353;81;21004;-65
2022/06/25 08:02:39;;;;;;;3.35;1.52;;;;;;;27.87;49.66;99574.47;1747231;81;21037;-66
2022/06/25 08:05:07;;;;;;;4.30;1.40;;;;;;;27.87;51.00;99558.49;1751682;81;21363;-64
2022/06/25 08:07:33;;;;;;;3.17;1.55;;;;;;;27.76;49.51;99565.20;1725912;82;21066;-65
2022/06/25 08:10:00;;;;;;;3.33;1.32;;;;;;;27.28;49.26;99554.06;1723283;82;21003;-65
2022/06/25 08:12:26;;;;;;;2.67;1.50;;;;;;;26.79;49.52;99565.58;1713028;83;21590;-65
2022/06/25 08:14:54;;;;;;;3.12;1.50;;;;;;;26.69;52.33;99563.48;1681535;83;20958;-64
2022/06/25 08:17:20;;;;;;;2.40;1.47;;;;;;;26.94;53.27;99553.98;1689239;83;21024;-64
2022/06/25 08:19:47;;;;;;;3.62;1.70;;;;;;;27.30;54.30;99555.09;1663981;83;21074;-64
2022/06/25 08:22:13;;;;;;;2.10;1.40;;;;;;;27.84;52.56;99559.87;1705888;83;21062;-65
2022/06/25 08:24:40;;;;;;;2.12;1.47;;;;;;;28.21;51.11;99568.86;1729977;81;21718;-65
2022/06/25 08:27:06;;;;;;;2.58;1.42;;;;;;;28.46;50.74;99561.34;1734612;82;21002;-65
2022/06/25 08:29:33;;;;;;;4.70;1.60;;;;;;;28.81;50.64;99562.65;1690413;83;21049;-64
2022/06/25 08:32:00;;;;;;;1.77;1.27;;;;;;;29.01;53.27;99561.89;1699996;84;21082;-64
2022/06/25 08:34:26;;;;;;;3.20;1.77;;;;;;;29.20;48.86;99559.27;1690618;83;21114;-64
2022/06/25 08:36:53;;;;;;;3.12;1.50;;;;;;;29.27;46.95;99563.51;1726176;83;21371;-63
2022/06/25 08:39:19;;;;;;;1.92;1.20;;;;;;;29.45;48.95;99557.28;1722558;82;21031;-65
2022/06/25 08:41:46;;;;;;;1.92;1.50;;;;;;;29.66;48.42;99555.04;1693194;84;21561;-65
2022/06/25 08:44:12;;;;;;;1.80;1.42;;;;;;;29.55;46.34;99560.67;1719027;82;21003;-67
2022/06/25 08:46:39;;;;;;;2.12;1.40;;;;;;;29.23;47.20;99556.29;1708358;83;20987;-65
2022/06/25 08:49:06;;;;;;;4.60;1.45;;;;;;;29.08;47.47;99557.69;1677609;84;21043;-65
2022/06/25 08:51:33;;;;;;;2.50;1.50;;;;;;;28.89;47.28;99557.27;1741844;81;21527;-66
2022/06/25 08:54:01;;;;;;;2.52;1.40;;;;;;;28.48;46.40;99553.97;1739250;81;21085;-66
2022/06/25 08:56:28;;;;;;;4.47;1.55;;;;;;;28.19;47.48;99561.47;1753475;81;21147;-65
2022/06/25 08:58:55;;;;;;;1.98;1.40;;;;;;;27.94;47.95;99560.52;1733836;81;21048;-64
2022/06/25 09:01:22;;;;;;;4.75;1.30;;;;;;;27.84;48.92;99552.88;1738892;82;21647;-67
2022/06/25 09:03:48;;;;;;;3.47;1.50;;;;;;;27.76;50.39;99559.62;1747964;81;21504;-68
2022/06/25 09:06:17;;;;;;;3.45;1.60;;;;;;;27.58;48.97;99552.52;1745553;81;21072;-63
2022/06/25 09:08:45;;;;;;;3.55;1.45;;;;;;;27.30;49.47;99555.89;1740981;81;21064;-64
2022/06/25 09:11:11;;;;;;;2.20;1.40;;;;;;;27.10;51.75;99555.94;1688242;82;21582;-64
2022/06/25 09:13:40;;;;;;;5.87;1.50;;;;;;;26.89;51.25;99541.17;1739034;82;21056;-66
2022/06/25 09:16:07;;;;;;;3.60;1.45;;;;;;;26.71;52.29;99545.16;1738261;82;21052;-62
2022/06/25 09:18:35;;;;;;;2.30;1.37;;;;;;;26.75;54.35;99549.38;1697114;82;21154;-64
2022/06/25 09:21:10;;;;;;;2.65;1.50;;;;;;;26.80;52.95;99547.64;1745936;82;21520;-63
2022/06/25 09:24:00;;;;;;;2.87;1.40;;;;;;;26.92;50.81;99541.02;1745969;81;21097;-65
2022/06/25 09:26:26;;;;;;;2.60;1.67;;;;;;;27.13;51.93;99543.40;1746154;82;21095;-65
2022/06/25 09:28:52;;;;;;;2.67;1.57;;;;;;;27.23;51.35;99543.85;1737147;81;21539;-65
2022/06/25 09:31:36;;;;;;;3.70;1.47;;;;;;;27.12;52.02;99545.97;1715449;83;21033;-66
2022/06/25 09:34:07;;;;;;;3.10;1.72;;;;;;;27.02;56.37;99548.68;1722254;81;21087;-64
2022/06/25 09:36:34;;;;;;;3.58;1.55;;;;;;;27.08;53.92;99545.73;1746596;82;21010;-65
2022/06/25 09:39:00;;;;;;;3.17;1.40;;;;;;;27.04;52.14;99541.51;1745754;81;21043;-63
2022/06/25 09:41:26;;;;;;;3.37;1.50;;;;;;;27.02;51.50;99545.88;1746225;82;21058;-64
2022/06/25 09:43:53;;;;;;;2.65;1.52;;;;;;;27.04;52.71;99544.89;1746517;81;21097;-63
2022/06/25 09:46:19;;;;;;;6.22;1.55;;;;;;;26.97;51.02;99540.05;1745863;82;21020;-63
2022/06/25 09:48:46;;;;;;;6.67;1.70;;;;;;;26.67;49.36;99543.54;1746400;81;21592;-66
2022/06/25 09:51:19;;;;;;;2.45;1.60;;;;;;;26.32;52.25;99542.58;1735484;82;21519;-65
2022/06/25 09:53:53;;;;;;;2.35;1.60;;;;;;;26.29;55.56;99542.53;1746902;81;21534;-64
2022/06/25 09:56:28;;;;;;;4.05;1.90;;;;;;;26.34;56.99;99547.17;1747225;82;22006;-64
2022/06/25 09:58:55;;;;;;;2.30;1.52;;;;;;;26.47;56.19;99543.51;1714149;82;21094;-64
2022/06/25 10:01:23;;;;;;;3.00;1.62;;;;;;;26.64;58.43;99544.31;1706721;83;21003;-66
2022/06/25 10:03:50;;;;;;;2.60;1.47;;;;;;;26.68;51.59;99540.94;1746899;81;21121;-65
2022/06/25 10:06:19;;;;;;;1.95;1.60;;;;;;;26.56;56.55;99545.42;1746716;82;21040;-64
2022/06/25 10:08:52;;;;;;;4.25;1.52;;;;;;;26.73;56.26;99537.80;1708958;83;21124;-64
2022/06/25 10:11:20;;;;;;;1.90;1.40;;;;;;;26.88;54.76;99538.78;1741213;82;21023;-64
2022/06/25 10:13:48;;;;;;;3.12;1.60;;;;;;;26.92;55.44;99541.02;1717534;82;21114;-66
2022/06/25 10:16:18;;;;;;;3.37;1.50;;;;;;;26.94;55.07;99544.20;1710893;84;21014;-63
2022/06/25 10:18:45;;;;;;;3.50;1.80;;;;;;;26.85;55.92;99546.53;1729474;81;21518;-63
2022/06/25 10:21:12;;;;;;;2.60;1.40;;;;;;;26.77;55.74;99543.42;1727882;82;20976;-62
2022/06/25 10:23:39;;;;;;;2.35;1.50;;;;;;;26.64;54.61;99540.91;1715667;83;21043;-63
2022/06/25 10:26:05;;;;;;;2.70;1.57;;;;;;;26.41;54.72;99540.86;1720458;82;20941;-63
2022/06/25 10:28:32;;;;;;;2.83;1.65;;;;;;;26.07;55.78;99550.62;1733368;81;21043;-63
2022/06/25 10:31:01;;;;;;;4.85;1.87;;;;;;;25.92;64.05;99540.45;1721698;81;20978;-65
2022/06/25 10:33:29;;;;;;;3.27;1.85;;;;;;;26.10;60.74;99540.67;1691460;84;21090;-62
2022/06/25 10:35:57;;;;;;;5.35;1.60;;;;;;;26.28;57.91;99532.55;1727098;81;20995;-64
2022/06/25 10:38:26;;;;;;;2.47;1.80;;;;;;;26.39;58.18;99532.89;1711269;83;21551;-65
2022/06/25 10:42:58;;;;;;;3.37;1.90;;;;;;;26.49;56.97;99532.19;1736544;82;20963;-62
2022/06/25 10:43:45;;;;;;;3.33;1.47;;;;;;;26.63;55.22;99535.72;1737094;81;21115;-63
2022/06/25 10:46:31;;;;;;;5.10;1.90;;;;;;;26.76;56.27;99536.23;1738878;81;21033;-63
2022/06/25 10:49:12;;;;;;;5.55;1.80;;;;;;;26.69;59.44;99541.96;1735957;81;21517;-63
2022/06/25 10:51:48;;;;;;;3.52;1.30;;;;;;;26.69;57.44;99537.77;1743089;81;21053;-65
2022/06/25 10:54:29;;;;;;;2.67;1.37;;;;;;;26.62;55.55;99529.91;1723812;82;21033;-63
2022/06/25 10:56:58;;;;;;;2.72;1.40;;;;;;;26.55;57.11;99533.44;1662178;85;21590;-62
2022/06/25 10:59:45;;;;;;;5.12;2.02;;;;;;;26.63;54.91;99531.53;1724079;82;21493;-62
2022/06/25 11:02:09;;;;;;;2.77;1.62;;;;;;;26.59;57.60;99530.10;1722968;82;20990;-63
2022/06/25 11:04:37;;;;;;;2.35;1.57;;;;;;;26.59;58.68;99532.89;1720774;82;21034;-62
2022/06/25 11:07:20;;;;;;;2.45;1.30;;;;;;;26.63;60.43;99539.91;1718822;82;21022;-64
2022/06/25 11:09:59;;;;;;;2.83;1.32;;;;;;;26.65;60.44;99534.73;1695062;83;21055;-64
2022/06/25 11:12:29;;;;;;;2.10;1.35;;;;;;;26.70;60.23;99537.19;1719291;83;21035;-64
2022/06/25 11:15:07;;;;;;;3.62;1.80;;;;;;;26.80;59.67;99529.50;1720246;83;20963;-63
2022/06/25 11:17:33;;;;;;;5.47;1.75;;;;;;;26.95;58.11;99527.08;1717334;82;21011;-65
2022/06/25 11:20:07;;;;;;;4.17;1.45;;;;;;;26.83;54.43;99530.73;1719426;83;21034;-62
2022/06/25 11:22:33;;;;;;;3.45;1.80;;;;;;;26.51;55.25;99530.39;1719086;82;21038;-64
2022/06/25 11:30:31;;;;;;;3.10;1.90;;;;;;;26.77;62.57;99523.88;1669350;86;21017;-66
2022/06/25 11:32:58;;;;;;;3.75;1.50;;;;;;;26.92;57.99;99531.23;1668950;84;21565;-63
2022/06/25 11:35:38;;;;;;;2.17;1.15;;;;;;;26.88;55.35;99532.60;1669633;85;21098;-64
2022/06/25 11:38:16;;;;;;;3.12;1.55;;;;;;;26.78;58.08;99535.27;1671400;85;21076;-64
2022/06/25 11:40:42;;;;;;;2.30;1.47;;;;;;;26.85;55.09;99529.19;1668244;85;20999;-63
2022/06/25 11:43:09;;;;;;;4.33;1.80;;;;;;;27.02;52.34;99527.73;1697085;84;21154;-63
2022/06/25 11:45:53;;;;;;;4.58;1.50;;;;;;;27.11;52.15;99533.77;1677828;85;21868;-65
2022/06/25 11:48:19;;;;;;;3.95;1.57;;;;;;;27.06;52.61;99529.37;1708751;83;21043;-66
2022/06/25 11:50:46;;;;;;;3.17;1.57;;;;;;;26.95;49.75;99534.06;1714247;83;20967;-65
2022/06/25 11:53:12;;;;;;;2.22;1.62;;;;;;;26.77;53.45;99528.07;1713351;83;21138;-68
2022/06/25 11:55:39;;;;;;;2.15;1.52;;;;;;;26.84;53.56;99530.95;1745438;82;21015;-65
2022/06/25 11:58:05;;;;;;;3.05;1.67;;;;;;;26.95;54.54;99520.09;1752333;81;21025;-64
2022/06/25 12:00:32;;;;;;;4.70;1.77;;;;;;;26.97;50.69;99528.87;1725193;82;21592;-64